sensor_id;sensor_type;location;lat;lon;timestamp;P1;durP1;ratioP1;P2;durP2;ratioP2
78209;SDS011;67485;48.816;9.930;2023-07-24T00:00:53;9.60;;;4.97;;
78209;SDS011;67485;48.816;9.930;2023-07-24T00:03:18;9.98;;;4.90;;
78209;SDS011;67485;48.816;9.930;2023-07-24T00:05:44;14.10;;;5.40;;
78209;SDS011;67485;48.816;9.930;2023-07-24T00:08:10;8.93;;;4.82;;
78209;SDS011;67485;48.816;9.930;2023-07-24T00:10:35;13.27;;;5.70;;
78209;SDS011;67485;48.816;9.930;2023-07-24T00:13:01;10.40;;;4.80;;
78209;SDS011;67485;48.816;9.930;2023-07-24T00:15:28;10.50;;;4.70;;
78209;SDS011;67485;48.816;9.930;2023-07-24T00:17:54;11.23;;;4.88;;
78209;SDS011;67485;48.816;9.930;2023-07-24T00:20:19;9.83;;;4.97;;
78209;SDS011;67485;48.816;9.930;2023-07-24T00:22:45;9.25;;;4.80;;
78209;SDS011;67485;48.816;9.930;2023-07-24T00:25:11;9.53;;;5.13;;
78209;SDS011;67485;48.816;9.930;2023-07-24T00:27:36;9.00;;;5.10;;
78209;SDS011;67485;48.816;9.930;2023-07-24T00:30:02;9.60;;;4.40;;
78209;SDS011;67485;48.816;9.930;2023-07-24T00:32:28;9.32;;;4.72;;
78209;SDS011;67485;48.816;9.930;2023-07-24T00:34:54;9.83;;;4.93;;
78209;SDS011;67485;48.816;9.930;2023-07-24T00:37:20;9.20;;;5.05;;
78209;SDS011;67485;48.816;9.930;2023-07-24T00:39:46;12.43;;;5.07;;
78209;SDS011;67485;48.816;9.930;2023-07-24T00:42:11;10.07;;;4.90;;
78209;SDS011;67485;48.816;9.930;2023-07-24T00:44:37;8.97;;;5.10;;
78209;SDS011;67485;48.816;9.930;2023-07-24T00:47:03;8.98;;;4.85;;
78209;SDS011;67485;48.816;9.930;2023-07-24T00:49:29;8.80;;;5.10;;
78209;SDS011;67485;48.816;9.930;2023-07-24T00:51:54;8.23;;;4.63;;
78209;SDS011;67485;48.816;9.930;2023-07-24T00:54:20;8.40;;;4.47;;
78209;SDS011;67485;48.816;9.930;2023-07-24T00:56:47;8.88;;;5.13;;
78209;SDS011;67485;48.816;9.930;2023-07-24T00:59:14;9.98;;;5.07;;
78209;SDS011;67485;48.816;9.930;2023-07-24T01:01:40;9.00;;;4.88;;
78209;SDS011;67485;48.816;9.930;2023-07-24T01:04:07;8.70;;;4.90;;
78209;SDS011;67485;48.816;9.930;2023-07-24T01:06:33;8.88;;;4.70;;
78209;SDS011;67485;48.816;9.930;2023-07-24T01:09:02;8.88;;;5.05;;
78209;SDS011;67485;48.816;9.930;2023-07-24T01:11:30;11.13;;;4.90;;
78209;SDS011;67485;48.816;9.930;2023-07-24T01:14:08;9.02;;;5.15;;
78209;SDS011;67485;48.816;9.930;2023-07-24T01:16:40;11.23;;;4.70;;
78209;SDS011;67485;48.816;9.930;2023-07-24T01:22:10;8.18;;;4.57;;
78209;SDS011;67485;48.816;9.930;2023-07-24T01:27:34;9.63;;;4.75;;
78209;SDS011;67485;48.816;9.930;2023-07-24T01:30:00;10.20;;;5.30;;
78209;SDS011;67485;48.816;9.930;2023-07-24T01:32:25;11.60;;;4.97;;
78209;SDS011;67485;48.816;9.930;2023-07-24T01:34:52;9.17;;;4.77;;
78209;SDS011;67485;48.816;9.930;2023-07-24T01:37:18;8.90;;;4.93;;
78209;SDS011;67485;48.816;9.930;2023-07-24T01:39:46;8.43;;;4.95;;
78209;SDS011;67485;48.816;9.930;2023-07-24T01:42:13;8.68;;;4.82;;
78209;SDS011;67485;48.816;9.930;2023-07-24T01:44:39;10.37;;;5.03;;
78209;SDS011;67485;48.816;9.930;2023-07-24T01:47:05;10.55;;;5.70;;
78209;SDS011;67485;48.816;9.930;2023-07-24T01:49:30;8.83;;;4.87;;
78209;SDS011;67485;48.816;9.930;2023-07-24T01:51:57;9.25;;;4.90;;
78209;SDS011;67485;48.816;9.930;2023-07-24T01:54:23;9.23;;;5.53;;
78209;SDS011;67485;48.816;9.930;2023-07-24T01:56:48;9.30;;;4.82;;
78209;SDS011;67485;48.816;9.930;2023-07-24T01:59:14;9.40;;;4.60;;
78209;SDS011;67485;48.816;9.930;2023-07-24T02:01:40;13.18;;;5.10;;
78209;SDS011;67485;48.816;9.930;2023-07-24T02:04:07;9.55;;;4.85;;
78209;SDS011;67485;48.816;9.930;2023-07-24T02:06:32;13.63;;;4.80;;
78209;SDS011;67485;48.816;9.930;2023-07-24T02:08:58;8.27;;;4.70;;
78209;SDS011;67485;48.816;9.930;2023-07-24T02:11:23;7.97;;;5.00;;
78209;SDS011;67485;48.816;9.930;2023-07-24T02:13:49;8.35;;;4.60;;
78209;SDS011;67485;48.816;9.930;2023-07-24T02:16:15;8.10;;;4.23;;
78209;SDS011;67485;48.816;9.930;2023-07-24T02:18:42;8.13;;;4.70;;
78209;SDS011;67485;48.816;9.930;2023-07-24T02:21:08;8.18;;;4.97;;
78209;SDS011;67485;48.816;9.930;2023-07-24T02:23:34;10.00;;;5.10;;
78209;SDS011;67485;48.816;9.930;2023-07-24T02:26:00;9.17;;;5.00;;
78209;SDS011;67485;48.816;9.930;2023-07-24T02:28:26;8.70;;;4.95;;
78209;SDS011;67485;48.816;9.930;2023-07-24T02:30:51;9.30;;;5.13;;
78209;SDS011;67485;48.816;9.930;2023-07-24T02:33:21;8.20;;;4.70;;
78209;SDS011;67485;48.816;9.930;2023-07-24T02:35:49;9.10;;;4.60;;
78209;SDS011;67485;48.816;9.930;2023-07-24T02:38:16;9.30;;;4.85;;
78209;SDS011;67485;48.816;9.930;2023-07-24T02:40:42;8.40;;;4.93;;
78209;SDS011;67485;48.816;9.930;2023-07-24T02:43:08;7.95;;;4.50;;
78209;SDS011;67485;48.816;9.930;2023-07-24T02:45:34;8.20;;;4.65;;
78209;SDS011;67485;48.816;9.930;2023-07-24T02:48:00;7.40;;;4.77;;
78209;SDS011;67485;48.816;9.930;2023-07-24T02:50:28;8.90;;;4.47;;
78209;SDS011;67485;48.816;9.930;2023-07-24T02:52:54;9.52;;;4.53;;
78209;SDS011;67485;48.816;9.930;2023-07-24T02:55:20;9.20;;;5.30;;
78209;SDS011;67485;48.816;9.930;2023-07-24T02:57:45;9.80;;;4.93;;
78209;SDS011;67485;48.816;9.930;2023-07-24T03:00:11;8.10;;;4.63;;
78209;SDS011;67485;48.816;9.930;2023-07-24T03:02:37;9.52;;;5.03;;
78209;SDS011;67485;48.816;9.930;2023-07-24T03:05:03;10.70;;;4.53;;
78209;SDS011;67485;48.816;9.930;2023-07-24T03:07:29;9.17;;;4.53;;
78209;SDS011;67485;48.816;9.930;2023-07-24T03:09:55;8.35;;;4.85;;
78209;SDS011;67485;48.816;9.930;2023-07-24T03:12:21;9.13;;;4.40;;
78209;SDS011;67485;48.816;9.930;2023-07-24T03:14:46;8.57;;;4.80;;
78209;SDS011;67485;48.816;9.930;2023-07-24T03:17:13;9.70;;;4.80;;
78209;SDS011;67485;48.816;9.930;2023-07-24T03:19:39;8.75;;;4.63;;
78209;SDS011;67485;48.816;9.930;2023-07-24T03:22:06;8.05;;;4.93;;
78209;SDS011;67485;48.816;9.930;2023-07-24T03:24:32;9.93;;;4.43;;
78209;SDS011;67485;48.816;9.930;2023-07-24T03:26:58;9.23;;;5.00;;
78209;SDS011;67485;48.816;9.930;2023-07-24T03:29:25;11.60;;;4.72;;
78209;SDS011;67485;48.816;9.930;2023-07-24T03:31:51;9.57;;;4.70;;
78209;SDS011;67485;48.816;9.930;2023-07-24T03:34:17;9.00;;;4.85;;
78209;SDS011;67485;48.816;9.930;2023-07-24T03:36:42;8.63;;;4.83;;
78209;SDS011;67485;48.816;9.930;2023-07-24T03:39:11;8.77;;;4.40;;
78209;SDS011;67485;48.816;9.930;2023-07-24T03:41:38;10.40;;;4.85;;
78209;SDS011;67485;48.816;9.930;2023-07-24T03:44:04;9.97;;;4.80;;
78209;SDS011;67485;48.816;9.930;2023-07-24T03:46:31;9.15;;;4.72;;
78209;SDS011;67485;48.816;9.930;2023-07-24T03:48:57;7.72;;;4.47;;
78209;SDS011;67485;48.816;9.930;2023-07-24T03:51:23;8.27;;;4.70;;
78209;SDS011;67485;48.816;9.930;2023-07-24T03:53:49;10.13;;;5.13;;
78209;SDS011;67485;48.816;9.930;2023-07-24T03:56:14;7.47;;;4.27;;
78209;SDS011;67485;48.816;9.930;2023-07-24T03:58:40;9.00;;;5.07;;
78209;SDS011;67485;48.816;9.930;2023-07-24T04:01:06;9.37;;;5.00;;
78209;SDS011;67485;48.816;9.930;2023-07-24T04:03:32;10.57;;;5.13;;
78209;SDS011;67485;48.816;9.930;2023-07-24T04:05:57;9.23;;;5.20;;
78209;SDS011;67485;48.816;9.930;2023-07-24T04:08:24;8.00;;;4.85;;
78209;SDS011;67485;48.816;9.930;2023-07-24T04:10:49;7.70;;;4.30;;
78209;SDS011;67485;48.816;9.930;2023-07-24T04:13:15;8.98;;;4.63;;
78209;SDS011;67485;48.816;9.930;2023-07-24T04:15:41;12.87;;;5.17;;
78209;SDS011;67485;48.816;9.930;2023-07-24T04:18:06;9.63;;;5.18;;
78209;SDS011;67485;48.816;9.930;2023-07-24T04:20:32;10.03;;;4.97;;
78209;SDS011;67485;48.816;9.930;2023-07-24T04:22:58;7.88;;;4.68;;
78209;SDS011;67485;48.816;9.930;2023-07-24T04:25:23;9.13;;;5.00;;
78209;SDS011;67485;48.816;9.930;2023-07-24T04:27:49;7.90;;;5.13;;
78209;SDS011;67485;48.816;9.930;2023-07-24T04:30:15;9.93;;;4.77;;
78209;SDS011;67485;48.816;9.930;2023-07-24T04:32:41;9.57;;;4.65;;
78209;SDS011;67485;48.816;9.930;2023-07-24T04:35:07;9.50;;;5.18;;
78209;SDS011;67485;48.816;9.930;2023-07-24T04:37:33;9.53;;;4.90;;
78209;SDS011;67485;48.816;9.930;2023-07-24T04:39:59;8.07;;;4.53;;
78209;SDS011;67485;48.816;9.930;2023-07-24T04:42:24;11.00;;;5.20;;
78209;SDS011;67485;48.816;9.930;2023-07-24T04:44:50;9.50;;;4.83;;
78209;SDS011;67485;48.816;9.930;2023-07-24T04:47:16;10.13;;;4.83;;
78209;SDS011;67485;48.816;9.930;2023-07-24T04:49:42;10.07;;;5.63;;
78209;SDS011;67485;48.816;9.930;2023-07-24T04:52:08;8.73;;;4.60;;
78209;SDS011;67485;48.816;9.930;2023-07-24T04:54:33;9.52;;;4.80;;
78209;SDS011;67485;48.816;9.930;2023-07-24T04:56:59;10.53;;;4.97;;
78209;SDS011;67485;48.816;9.930;2023-07-24T04:59:25;9.02;;;4.75;;
78209;SDS011;67485;48.816;9.930;2023-07-24T05:01:50;8.60;;;5.03;;
78209;SDS011;67485;48.816;9.930;2023-07-24T05:04:16;11.00;;;5.10;;
78209;SDS011;67485;48.816;9.930;2023-07-24T05:06:42;9.17;;;5.40;;
78209;SDS011;67485;48.816;9.930;2023-07-24T05:09:07;10.67;;;5.00;;
78209;SDS011;67485;48.816;9.930;2023-07-24T05:11:33;10.10;;;4.90;;
78209;SDS011;67485;48.816;9.930;2023-07-24T05:13:58;10.07;;;4.80;;
78209;SDS011;67485;48.816;9.930;2023-07-24T05:16:24;8.90;;;4.78;;
78209;SDS011;67485;48.816;9.930;2023-07-24T05:18:50;10.53;;;4.60;;
78209;SDS011;67485;48.816;9.930;2023-07-24T05:21:15;8.95;;;5.40;;
78209;SDS011;67485;48.816;9.930;2023-07-24T05:23:41;9.77;;;4.93;;
78209;SDS011;67485;48.816;9.930;2023-07-24T05:26:06;9.27;;;5.00;;
78209;SDS011;67485;48.816;9.930;2023-07-24T05:28:32;10.77;;;5.07;;
78209;SDS011;67485;48.816;9.930;2023-07-24T05:31:02;9.10;;;5.03;;
78209;SDS011;67485;48.816;9.930;2023-07-24T05:33:29;9.32;;;5.18;;
78209;SDS011;67485;48.816;9.930;2023-07-24T05:35:58;9.73;;;4.63;;
78209;SDS011;67485;48.816;9.930;2023-07-24T05:38:25;10.85;;;5.00;;
78209;SDS011;67485;48.816;9.930;2023-07-24T05:40:55;8.55;;;4.88;;
78209;SDS011;67485;48.816;9.930;2023-07-24T05:43:21;10.95;;;5.07;;
78209;SDS011;67485;48.816;9.930;2023-07-24T05:45:47;11.53;;;5.53;;
78209;SDS011;67485;48.816;9.930;2023-07-24T05:48:12;10.02;;;5.65;;
78209;SDS011;67485;48.816;9.930;2023-07-24T05:50:38;10.83;;;5.80;;
78209;SDS011;67485;48.816;9.930;2023-07-24T05:53:04;9.93;;;4.70;;
78209;SDS011;67485;48.816;9.930;2023-07-24T05:55:29;9.95;;;5.00;;
78209;SDS011;67485;48.816;9.930;2023-07-24T05:57:55;10.80;;;6.17;;
78209;SDS011;67485;48.816;9.930;2023-07-24T06:00:20;11.55;;;5.43;;
78209;SDS011;67485;48.816;9.930;2023-07-24T06:02:46;9.77;;;5.77;;
78209;SDS011;67485;48.816;9.930;2023-07-24T06:05:12;9.90;;;4.93;;
78209;SDS011;67485;48.816;9.930;2023-07-24T06:07:37;7.57;;;4.72;;
78209;SDS011;67485;48.816;9.930;2023-07-24T06:10:03;10.43;;;5.17;;
78209;SDS011;67485;48.816;9.930;2023-07-24T06:12:29;9.65;;;4.93;;
78209;SDS011;67485;48.816;9.930;2023-07-24T06:14:54;8.50;;;4.90;;
78209;SDS011;67485;48.816;9.930;2023-07-24T06:17:20;9.38;;;5.32;;
78209;SDS011;67485;48.816;9.930;2023-07-24T06:19:45;11.03;;;5.77;;
78209;SDS011;67485;48.816;9.930;2023-07-24T06:22:11;9.02;;;5.30;;
78209;SDS011;67485;48.816;9.930;2023-07-24T06:24:37;9.10;;;5.03;;
78209;SDS011;67485;48.816;9.930;2023-07-24T06:27:03;11.55;;;5.88;;
78209;SDS011;67485;48.816;9.930;2023-07-24T06:29:31;10.73;;;5.25;;
78209;SDS011;67485;48.816;9.930;2023-07-24T06:31:57;10.17;;;5.53;;
78209;SDS011;67485;48.816;9.930;2023-07-24T06:34:23;9.60;;;5.10;;
78209;SDS011;67485;48.816;9.930;2023-07-24T06:36:49;8.40;;;5.43;;
78209;SDS011;67485;48.816;9.930;2023-07-24T06:39:14;8.77;;;5.22;;
78209;SDS011;67485;48.816;9.930;2023-07-24T06:41:40;10.15;;;5.50;;
78209;SDS011;67485;48.816;9.930;2023-07-24T06:44:06;9.27;;;5.43;;
78209;SDS011;67485;48.816;9.930;2023-07-24T06:46:32;12.52;;;5.65;;
78209;SDS011;67485;48.816;9.930;2023-07-24T06:48:57;11.17;;;5.73;;
78209;SDS011;67485;48.816;9.930;2023-07-24T06:51:23;9.43;;;5.32;;
78209;SDS011;67485;48.816;9.930;2023-07-24T06:53:48;9.67;;;4.83;;
78209;SDS011;67485;48.816;9.930;2023-07-24T06:56:14;11.25;;;5.88;;
78209;SDS011;67485;48.816;9.930;2023-07-24T06:58:40;10.80;;;5.37;;
78209;SDS011;67485;48.816;9.930;2023-07-24T07:01:06;9.27;;;5.15;;
78209;SDS011;67485;48.816;9.930;2023-07-24T07:03:32;10.67;;;5.20;;
78209;SDS011;67485;48.816;9.930;2023-07-24T07:06:00;8.80;;;5.00;;
78209;SDS011;67485;48.816;9.930;2023-07-24T07:08:26;8.55;;;5.10;;
78209;SDS011;67485;48.816;9.930;2023-07-24T07:10:56;10.98;;;5.65;;
78209;SDS011;67485;48.816;9.930;2023-07-24T07:13:25;8.75;;;5.03;;
78209;SDS011;67485;48.816;9.930;2023-07-24T07:15:52;10.37;;;5.67;;
78209;SDS011;67485;48.816;9.930;2023-07-24T07:18:17;9.75;;;5.55;;
78209;SDS011;67485;48.816;9.930;2023-07-24T07:20:52;9.83;;;5.20;;
78209;SDS011;67485;48.816;9.930;2023-07-24T07:23:19;8.57;;;5.13;;
78209;SDS011;67485;48.816;9.930;2023-07-24T07:25:45;9.68;;;5.78;;
78209;SDS011;67485;48.816;9.930;2023-07-24T07:28:15;10.27;;;5.90;;
78209;SDS011;67485;48.816;9.930;2023-07-24T07:30:42;9.23;;;5.70;;
78209;SDS011;67485;48.816;9.930;2023-07-24T07:33:08;8.77;;;5.30;;
78209;SDS011;67485;48.816;9.930;2023-07-24T07:35:34;11.05;;;5.40;;
78209;SDS011;67485;48.816;9.930;2023-07-24T07:38:01;11.82;;;5.40;;
78209;SDS011;67485;48.816;9.930;2023-07-24T07:40:28;8.27;;;5.25;;
78209;SDS011;67485;48.816;9.930;2023-07-24T07:42:54;7.93;;;5.37;;
78209;SDS011;67485;48.816;9.930;2023-07-24T07:45:20;10.45;;;5.22;;
78209;SDS011;67485;48.816;9.930;2023-07-24T07:47:46;8.73;;;5.15;;
78209;SDS011;67485;48.816;9.930;2023-07-24T07:50:12;8.43;;;5.13;;
78209;SDS011;67485;48.816;9.930;2023-07-24T07:52:38;9.87;;;5.77;;
78209;SDS011;67485;48.816;9.930;2023-07-24T07:55:04;10.23;;;5.60;;
78209;SDS011;67485;48.816;9.930;2023-07-24T07:57:36;9.63;;;4.93;;
78209;SDS011;67485;48.816;9.930;2023-07-24T08:00:03;8.53;;;5.33;;
78209;SDS011;67485;48.816;9.930;2023-07-24T08:02:31;9.95;;;5.60;;
78209;SDS011;67485;48.816;9.930;2023-07-24T08:04:59;11.30;;;5.53;;
78209;SDS011;67485;48.816;9.930;2023-07-24T08:07:25;12.05;;;5.30;;
78209;SDS011;67485;48.816;9.930;2023-07-24T08:09:50;9.67;;;5.77;;
78209;SDS011;67485;48.816;9.930;2023-07-24T08:12:16;10.05;;;5.32;;
78209;SDS011;67485;48.816;9.930;2023-07-24T08:14:42;9.27;;;5.30;;
78209;SDS011;67485;48.816;9.930;2023-07-24T08:17:07;14.75;;;5.63;;
78209;SDS011;67485;48.816;9.930;2023-07-24T08:19:33;9.57;;;5.40;;
78209;SDS011;67485;48.816;9.930;2023-07-24T08:21:59;9.85;;;5.43;;
78209;SDS011;67485;48.816;9.930;2023-07-24T08:24:24;9.57;;;5.23;;
78209;SDS011;67485;48.816;9.930;2023-07-24T08:26:50;9.80;;;5.32;;
78209;SDS011;67485;48.816;9.930;2023-07-24T08:29:16;9.17;;;5.27;;
78209;SDS011;67485;48.816;9.930;2023-07-24T08:31:41;9.50;;;4.87;;
78209;SDS011;67485;48.816;9.930;2023-07-24T08:34:07;8.82;;;4.80;;
78209;SDS011;67485;48.816;9.930;2023-07-24T08:36:32;10.00;;;5.17;;
78209;SDS011;67485;48.816;9.930;2023-07-24T08:38:58;10.77;;;5.80;;
78209;SDS011;67485;48.816;9.930;2023-07-24T08:41:24;10.43;;;5.17;;
78209;SDS011;67485;48.816;9.930;2023-07-24T08:43:49;10.07;;;5.47;;
78209;SDS011;67485;48.816;9.930;2023-07-24T08:46:17;9.30;;;5.38;;
78209;SDS011;67485;48.816;9.930;2023-07-24T08:48:44;8.03;;;4.97;;
78209;SDS011;67485;48.816;9.930;2023-07-24T08:51:13;10.95;;;4.72;;
78209;SDS011;67485;48.816;9.930;2023-07-24T08:53:44;8.65;;;4.85;;
78209;SDS011;67485;48.816;9.930;2023-07-24T08:56:10;10.23;;;4.90;;
78209;SDS011;67485;48.816;9.930;2023-07-24T08:58:37;8.75;;;5.25;;
78209;SDS011;67485;48.816;9.930;2023-07-24T09:01:05;11.52;;;5.00;;
78209;SDS011;67485;48.816;9.930;2023-07-24T09:03:31;8.73;;;4.53;;
78209;SDS011;67485;48.816;9.930;2023-07-24T09:05:57;9.85;;;5.20;;
78209;SDS011;67485;48.816;9.930;2023-07-24T09:10:59;12.68;;;5.38;;
78209;SDS011;67485;48.816;9.930;2023-07-24T09:13:26;9.90;;;5.13;;
78209;SDS011;67485;48.816;9.930;2023-07-24T09:15:51;9.93;;;5.05;;
78209;SDS011;67485;48.816;9.930;2023-07-24T09:18:17;8.90;;;5.30;;
78209;SDS011;67485;48.816;9.930;2023-07-24T09:20:43;8.97;;;5.60;;
78209;SDS011;67485;48.816;9.930;2023-07-24T09:23:10;8.85;;;5.07;;
78209;SDS011;67485;48.816;9.930;2023-07-24T09:25:38;9.65;;;5.57;;
78209;SDS011;67485;48.816;9.930;2023-07-24T09:28:09;6.93;;;4.88;;
78209;SDS011;67485;48.816;9.930;2023-07-24T09:30:39;7.68;;;4.85;;
78209;SDS011;67485;48.816;9.930;2023-07-24T09:33:05;9.00;;;5.10;;
78209;SDS011;67485;48.816;9.930;2023-07-24T09:35:31;8.05;;;4.78;;
78209;SDS011;67485;48.816;9.930;2023-07-24T09:40:40;7.97;;;4.63;;
78209;SDS011;67485;48.816;9.930;2023-07-24T09:43:26;7.15;;;4.82;;
78209;SDS011;67485;48.816;9.930;2023-07-24T09:45:53;7.53;;;4.53;;
78209;SDS011;67485;48.816;9.930;2023-07-24T09:48:20;9.40;;;4.88;;
78209;SDS011;67485;48.816;9.930;2023-07-24T09:50:48;6.97;;;4.10;;
78209;SDS011;67485;48.816;9.930;2023-07-24T09:53:18;8.65;;;4.20;;
78209;SDS011;67485;48.816;9.930;2023-07-24T09:55:52;7.53;;;4.13;;
78209;SDS011;67485;48.816;9.930;2023-07-24T09:58:27;8.83;;;3.90;;
78209;SDS011;67485;48.816;9.930;2023-07-24T10:00:54;6.55;;;3.90;;
78209;SDS011;67485;48.816;9.930;2023-07-24T10:03:21;8.60;;;4.40;;
78209;SDS011;67485;48.816;9.930;2023-07-24T10:05:47;9.63;;;4.20;;
78209;SDS011;67485;48.816;9.930;2023-07-24T10:08:17;5.90;;;3.57;;
78209;SDS011;67485;48.816;9.930;2023-07-24T10:10:44;7.95;;;4.30;;
78209;SDS011;67485;48.816;9.930;2023-07-24T10:13:10;7.93;;;4.55;;
78209;SDS011;67485;48.816;9.930;2023-07-24T10:15:43;6.72;;;4.30;;
78209;SDS011;67485;48.816;9.930;2023-07-24T10:18:11;10.88;;;4.68;;
78209;SDS011;67485;48.816;9.930;2023-07-24T10:20:38;7.27;;;4.03;;
78209;SDS011;67485;48.816;9.930;2023-07-24T10:23:05;5.93;;;3.88;;
78209;SDS011;67485;48.816;9.930;2023-07-24T10:25:33;6.38;;;4.35;;
78209;SDS011;67485;48.816;9.930;2023-07-24T10:28:05;7.00;;;3.90;;
78209;SDS011;67485;48.816;9.930;2023-07-24T10:30:36;6.68;;;4.45;;
78209;SDS011;67485;48.816;9.930;2023-07-24T10:33:07;8.27;;;4.10;;
78209;SDS011;67485;48.816;9.930;2023-07-24T10:35:53;7.40;;;4.30;;
78209;SDS011;67485;48.816;9.930;2023-07-24T10:38:31;6.43;;;4.25;;
78209;SDS011;67485;48.816;9.930;2023-07-24T10:41:03;7.47;;;4.13;;
78209;SDS011;67485;48.816;9.930;2023-07-24T10:43:39;7.15;;;4.25;;
78209;SDS011;67485;48.816;9.930;2023-07-24T10:46:16;6.88;;;4.35;;
78209;SDS011;67485;48.816;9.930;2023-07-24T10:48:45;8.48;;;4.50;;
78209;SDS011;67485;48.816;9.930;2023-07-24T10:51:12;6.57;;;4.35;;
78209;SDS011;67485;48.816;9.930;2023-07-24T10:53:46;9.43;;;4.10;;
78209;SDS011;67485;48.816;9.930;2023-07-24T10:56:13;9.45;;;4.43;;
78209;SDS011;67485;48.816;9.930;2023-07-24T10:58:39;8.63;;;4.43;;
78209;SDS011;67485;48.816;9.930;2023-07-24T11:01:05;13.07;;;4.95;;
78209;SDS011;67485;48.816;9.930;2023-07-24T11:03:32;7.32;;;4.55;;
78209;SDS011;67485;48.816;9.930;2023-07-24T11:06:00;8.87;;;4.90;;
78209;SDS011;67485;48.816;9.930;2023-07-24T11:08:27;8.68;;;4.45;;
78209;SDS011;67485;48.816;9.930;2023-07-24T11:10:54;11.38;;;4.93;;
78209;SDS011;67485;48.816;9.930;2023-07-24T11:13:25;9.80;;;5.18;;
78209;SDS011;67485;48.816;9.930;2023-07-24T11:15:52;10.93;;;4.80;;
78209;SDS011;67485;48.816;9.930;2023-07-24T11:18:18;7.43;;;4.30;;
78209;SDS011;67485;48.816;9.930;2023-07-24T11:20:48;8.15;;;4.97;;
78209;SDS011;67485;48.816;9.930;2023-07-24T11:23:15;9.27;;;4.63;;
78209;SDS011;67485;48.816;9.930;2023-07-24T11:25:41;9.17;;;4.83;;
78209;SDS011;67485;48.816;9.930;2023-07-24T11:28:07;9.20;;;5.10;;
78209;SDS011;67485;48.816;9.930;2023-07-24T11:30:35;8.30;;;5.10;;
78209;SDS011;67485;48.816;9.930;2023-07-24T11:33:02;8.38;;;4.72;;
78209;SDS011;67485;48.816;9.930;2023-07-24T11:35:28;9.88;;;4.97;;
78209;SDS011;67485;48.816;9.930;2023-07-24T11:37:54;10.07;;;4.80;;
78209;SDS011;67485;48.816;9.930;2023-07-24T11:40:20;11.00;;;5.40;;
78209;SDS011;67485;48.816;9.930;2023-07-24T11:42:47;7.55;;;4.65;;
78209;SDS011;67485;48.816;9.930;2023-07-24T11:45:13;11.52;;;5.38;;
78209;SDS011;67485;48.816;9.930;2023-07-24T11:50:09;11.52;;;4.88;;
78209;SDS011;67485;48.816;9.930;2023-07-24T11:52:42;8.73;;;4.97;;
78209;SDS011;67485;48.816;9.930;2023-07-24T11:55:16;7.22;;;4.13;;
78209;SDS011;67485;48.816;9.930;2023-07-24T11:57:55;8.47;;;4.60;;
78209;SDS011;67485;48.816;9.930;2023-07-24T12:00:22;7.10;;;4.32;;
78209;SDS011;67485;48.816;9.930;2023-07-24T12:02:48;7.50;;;4.22;;
78209;SDS011;67485;48.816;9.930;2023-07-24T12:05:14;9.80;;;4.53;;
78209;SDS011;67485;48.816;9.930;2023-07-24T12:07:41;8.17;;;4.03;;
78209;SDS011;67485;48.816;9.930;2023-07-24T12:10:12;7.95;;;4.65;;
78209;SDS011;67485;48.816;9.930;2023-07-24T12:12:47;7.80;;;4.50;;
78209;SDS011;67485;48.816;9.930;2023-07-24T12:15:13;7.38;;;3.92;;
78209;SDS011;67485;48.816;9.930;2023-07-24T12:17:40;7.53;;;4.30;;
78209;SDS011;67485;48.816;9.930;2023-07-24T12:20:06;8.10;;;4.53;;
78209;SDS011;67485;48.816;9.930;2023-07-24T12:22:35;7.65;;;4.47;;
78209;SDS011;67485;48.816;9.930;2023-07-24T12:25:01;7.38;;;4.30;;
78209;SDS011;67485;48.816;9.930;2023-07-24T12:27:29;11.32;;;4.28;;
78209;SDS011;67485;48.816;9.930;2023-07-24T12:29:55;6.70;;;4.60;;
78209;SDS011;67485;48.816;9.930;2023-07-24T12:32:22;6.37;;;3.80;;
78209;SDS011;67485;48.816;9.930;2023-07-24T12:34:48;7.30;;;3.95;;
78209;SDS011;67485;48.816;9.930;2023-07-24T12:37:16;7.05;;;4.28;;
78209;SDS011;67485;48.816;9.930;2023-07-24T12:39:43;7.47;;;4.32;;
78209;SDS011;67485;48.816;9.930;2023-07-24T12:42:13;8.15;;;4.72;;
78209;SDS011;67485;48.816;9.930;2023-07-24T12:44:40;6.47;;;3.80;;
78209;SDS011;67485;48.816;9.930;2023-07-24T12:47:06;6.78;;;4.00;;
78209;SDS011;67485;48.816;9.930;2023-07-24T12:49:32;6.93;;;4.00;;
78209;SDS011;67485;48.816;9.930;2023-07-24T12:51:58;8.85;;;3.97;;
78209;SDS011;67485;48.816;9.930;2023-07-24T12:54:24;6.97;;;3.60;;
78209;SDS011;67485;48.816;9.930;2023-07-24T12:56:50;6.67;;;3.97;;
78209;SDS011;67485;48.816;9.930;2023-07-24T12:59:19;6.20;;;3.20;;
78209;SDS011;67485;48.816;9.930;2023-07-24T13:01:44;7.70;;;3.15;;
78209;SDS011;67485;48.816;9.930;2023-07-24T13:04:11;5.43;;;3.78;;
78209;SDS011;67485;48.816;9.930;2023-07-24T13:06:36;5.57;;;3.40;;
78209;SDS011;67485;48.816;9.930;2023-07-24T13:09:02;4.47;;;2.90;;
78209;SDS011;67485;48.816;9.930;2023-07-24T13:11:28;5.53;;;3.33;;
78209;SDS011;67485;48.816;9.930;2023-07-24T13:13:55;5.35;;;3.33;;
78209;SDS011;67485;48.816;9.930;2023-07-24T13:16:21;5.57;;;3.50;;
78209;SDS011;67485;48.816;9.930;2023-07-24T13:18:47;4.28;;;2.75;;
78209;SDS011;67485;48.816;9.930;2023-07-24T13:21:13;6.80;;;3.40;;
78209;SDS011;67485;48.816;9.930;2023-07-24T13:23:39;5.40;;;3.70;;
78209;SDS011;67485;48.816;9.930;2023-07-24T13:26:05;5.55;;;3.50;;
78209;SDS011;67485;48.816;9.930;2023-07-24T13:28:33;4.30;;;3.00;;
78209;SDS011;67485;48.816;9.930;2023-07-24T13:30:59;4.70;;;2.90;;
78209;SDS011;67485;48.816;9.930;2023-07-24T13:33:35;4.85;;;2.90;;
78209;SDS011;67485;48.816;9.930;2023-07-24T13:36:01;5.90;;;3.30;;
78209;SDS011;67485;48.816;9.930;2023-07-24T13:38:26;7.10;;;3.70;;
78209;SDS011;67485;48.816;9.930;2023-07-24T13:40:52;4.55;;;3.05;;
78209;SDS011;67485;48.816;9.930;2023-07-24T13:43:17;6.40;;;3.33;;
78209;SDS011;67485;48.816;9.930;2023-07-24T13:45:43;5.55;;;3.30;;
78209;SDS011;67485;48.816;9.930;2023-07-24T13:48:09;6.07;;;3.83;;
78209;SDS011;67485;48.816;9.930;2023-07-24T13:50:35;4.50;;;3.20;;
78209;SDS011;67485;48.816;9.930;2023-07-24T13:53:00;6.87;;;3.47;;
78209;SDS011;67485;48.816;9.930;2023-07-24T13:55:26;5.05;;;3.38;;
78209;SDS011;67485;48.816;9.930;2023-07-24T13:57:52;6.17;;;3.43;;
78209;SDS011;67485;48.816;9.930;2023-07-24T14:00:17;5.50;;;3.60;;
78209;SDS011;67485;48.816;9.930;2023-07-24T14:02:46;4.57;;;3.47;;
78209;SDS011;67485;48.816;9.930;2023-07-24T14:05:11;8.13;;;3.47;;
78209;SDS011;67485;48.816;9.930;2023-07-24T14:07:37;5.17;;;3.10;;
78209;SDS011;67485;48.816;9.930;2023-07-24T14:10:02;5.20;;;3.25;;
78209;SDS011;67485;48.816;9.930;2023-07-24T14:12:28;5.82;;;3.42;;
78209;SDS011;67485;48.816;9.930;2023-07-24T14:14:54;4.90;;;3.17;;
78209;SDS011;67485;48.816;9.930;2023-07-24T14:17:20;5.37;;;3.20;;
78209;SDS011;67485;48.816;9.930;2023-07-24T14:19:45;5.07;;;3.20;;
78209;SDS011;67485;48.816;9.930;2023-07-24T14:22:11;5.27;;;3.63;;
78209;SDS011;67485;48.816;9.930;2023-07-24T14:24:36;5.93;;;3.60;;
78209;SDS011;67485;48.816;9.930;2023-07-24T14:27:02;5.30;;;3.50;;
78209;SDS011;67485;48.816;9.930;2023-07-24T14:29:28;4.35;;;2.92;;
78209;SDS011;67485;48.816;9.930;2023-07-24T14:31:53;5.67;;;2.97;;
78209;SDS011;67485;48.816;9.930;2023-07-24T14:34:19;5.70;;;3.27;;
78209;SDS011;67485;48.816;9.930;2023-07-24T14:36:45;7.10;;;3.63;;
78209;SDS011;67485;48.816;9.930;2023-07-24T14:39:10;6.60;;;3.83;;
78209;SDS011;67485;48.816;9.930;2023-07-24T14:41:36;5.20;;;3.13;;
78209;SDS011;67485;48.816;9.930;2023-07-24T14:44:01;4.83;;;3.03;;
78209;SDS011;67485;48.816;9.930;2023-07-24T14:46:27;6.40;;;2.85;;
78209;SDS011;67485;48.816;9.930;2023-07-24T14:48:53;4.53;;;2.90;;
78209;SDS011;67485;48.816;9.930;2023-07-24T14:51:18;4.88;;;2.88;;
78209;SDS011;67485;48.816;9.930;2023-07-24T14:53:44;7.20;;;3.00;;
78209;SDS011;67485;48.816;9.930;2023-07-24T14:56:10;5.27;;;2.73;;